createdAt,value
2023-02-24T00:01:24.992Z,6.82
2023-02-24T00:03:49.724Z,5.93
2023-02-24T00:06:13.510Z,5.88
2023-02-24T00:08:37.416Z,5.78
2023-02-24T00:11:00.961Z,5.70
2023-02-24T00:13:24.233Z,6.97
2023-02-24T00:15:47.506Z,5.88
2023-02-24T00:18:10.844Z,5.43
2023-02-24T00:20:36.049Z,6.85
2023-02-24T00:23:00.354Z,5.43
2023-02-24T00:25:23.626Z,5.25
2023-02-24T00:27:46.923Z,5.55
2023-02-24T00:30:12.148Z,4.68
2023-02-24T00:32:36.512Z,4.75
2023-02-24T00:34:59.992Z,6.10
2023-02-24T00:37:24.851Z,4.55
2023-02-24T00:39:48.349Z,4.93
2023-02-24T00:42:12.625Z,5.53
2023-02-24T00:44:38.287Z,5.47
2023-02-24T00:47:02.586Z,5.65
2023-02-24T00:49:26.055Z,5.88
2023-02-24T00:51:54.297Z,4.85
2023-02-24T00:54:20.168Z,5.18
2023-02-24T00:56:45.234Z,6.35
2023-02-24T00:59:08.727Z,5.40
2023-02-24T01:01:35.056Z,6.35
2023-02-24T01:04:00.002Z,6.53
2023-02-24T01:06:27.246Z,6.32
2023-02-24T01:08:55.440Z,6.15
2023-02-24T01:11:40.155Z,5.35
2023-02-24T01:14:06.518Z,5.18
2023-02-24T01:16:29.778Z,5.20
2023-02-24T01:18:53.221Z,4.68
2023-02-24T01:21:17.774Z,6.03
2023-02-24T01:23:42.425Z,6.63
2023-02-24T01:26:06.273Z,5.13
2023-02-24T01:28:31.284Z,6.03
2023-02-24T01:30:55.114Z,5.03
2023-02-24T01:33:21.446Z,5.05
2023-02-24T01:35:44.773Z,5.30
2023-02-24T01:38:08.084Z,6.35
2023-02-24T01:40:31.372Z,6.63
2023-02-24T01:42:56.022Z,5.13
2023-02-24T01:45:28.607Z,5.53
2023-02-24T01:47:54.426Z,5.25
2023-02-24T01:50:21.992Z,6.50
2023-02-24T01:52:47.516Z,5.30
2023-02-24T01:55:20.157Z,5.85
2023-02-24T01:57:46.120Z,4.57
2023-02-24T02:00:31.288Z,5.70
2023-02-24T02:03:00.624Z,5.03
2023-02-24T02:05:24.996Z,5.60
2023-02-24T02:07:50.170Z,6.10
2023-02-24T02:10:14.810Z,6.45
2023-02-24T02:12:44.174Z,5.70
2023-02-24T02:15:09.757Z,6.45
2023-02-24T02:17:42.420Z,7.22
2023-02-24T02:20:37.416Z,6.45
2023-02-24T02:23:40.877Z,5.97
2023-02-24T02:26:26.852Z,6.45
2023-02-24T02:29:14.736Z,5.30
2023-02-24T02:32:17.268Z,6.13
2023-02-24T02:34:50.345Z,5.05
2023-02-24T02:37:19.935Z,5.15
2023-02-24T02:39:52.565Z,5.38
2023-02-24T02:42:30.139Z,5.50
2023-02-24T02:45:00.166Z,6.13
2023-02-24T02:47:30.327Z,5.63
2023-02-24T02:50:00.666Z,5.90
2023-02-24T02:52:32.846Z,5.22
2023-02-24T02:55:01.519Z,5.15
2023-02-24T02:57:32.027Z,4.60
2023-02-24T03:00:02.527Z,5.50
2023-02-24T03:02:39.972Z,5.72
2023-02-24T03:05:09.420Z,6.35
2023-02-24T03:07:40.402Z,5.40
2023-02-24T03:10:17.869Z,5.38
2023-02-24T03:12:42.745Z,5.32
2023-02-24T03:15:10.920Z,5.57
2023-02-24T03:17:42.434Z,5.45
2023-02-24T03:20:16.986Z,6.10
2023-02-24T03:22:46.344Z,5.85
2023-02-24T03:25:10.888Z,6.57
2023-02-24T03:27:43.013Z,4.32
2023-02-24T03:30:17.157Z,5.70
2023-02-24T03:32:51.379Z,5.18
2023-02-24T03:35:21.610Z,4.85
2023-02-24T03:37:47.130Z,5.10
2023-02-24T03:40:14.915Z,5.53
2023-02-24T03:42:42.246Z,5.68
2023-02-24T03:45:06.805Z,5.47
2023-02-24T03:47:30.287Z,6.10
2023-02-24T03:49:53.871Z,5.97
2023-02-24T03:52:33.320Z,5.28
2023-02-24T03:55:16.770Z,5.30
2023-02-24T03:58:00.024Z,5.90
2023-02-24T04:00:39.375Z,5.53
2023-02-24T04:03:15.288Z,5.97
2023-02-24T04:05:48.543Z,6.15
2023-02-24T04:08:13.868Z,5.78
2023-02-24T04:10:52.590Z,4.57
2023-02-24T04:13:28.304Z,5.63
2023-02-24T04:16:01.664Z,5.43
2023-02-24T04:18:30.927Z,5.00
2023-02-24T04:20:59.726Z,4.88
2023-02-24T04:23:32.689Z,5.43
2023-02-24T04:25:56.997Z,6.25
2023-02-24T04:28:24.409Z,5.93
2023-02-24T04:30:52.971Z,6.30
2023-02-24T04:33:16.761Z,5.63
2023-02-24T04:35:40.561Z,6.00
2023-02-24T04:38:04.792Z,5.38
2023-02-24T04:40:29.955Z,5.67
2023-02-24T04:42:55.031Z,5.43
2023-02-24T04:45:21.837Z,5.18
2023-02-24T04:47:51.179Z,5.73
2023-02-24T04:50:22.832Z,6.30
2023-02-24T04:52:46.393Z,6.20
2023-02-24T04:55:11.410Z,5.87
2023-02-24T04:57:37.630Z,6.30
2023-02-24T05:00:00.889Z,5.75
2023-02-24T05:02:24.223Z,6.65
2023-02-24T05:04:49.516Z,6.38
2023-02-24T05:07:15.922Z,6.00
2023-02-24T05:09:39.168Z,6.15
2023-02-24T05:12:02.496Z,5.65
2023-02-24T05:14:27.326Z,6.32
2023-02-24T05:16:51.367Z,6.25
2023-02-24T05:19:36.092Z,6.18
2023-02-24T05:21:59.609Z,5.40
2023-02-24T05:24:22.912Z,6.35
2023-02-24T05:26:46.923Z,5.53
2023-02-24T05:29:13.224Z,6.33
2023-02-24T05:31:38.592Z,5.83
2023-02-24T05:34:05.444Z,6.53
2023-02-24T05:36:33.569Z,6.57
2023-02-24T05:39:00.219Z,7.43
2023-02-24T05:41:23.984Z,5.38
2023-02-24T05:43:52.945Z,6.63
2023-02-24T05:46:16.856Z,6.32
2023-02-24T05:48:41.800Z,6.35
2023-02-24T05:51:08.173Z,6.40
2023-02-24T05:53:31.559Z,6.20
2023-02-24T05:55:54.853Z,6.30
2023-02-24T05:58:18.122Z,7.45
2023-02-24T06:00:45.918Z,6.60
2023-02-24T06:03:10.580Z,5.13
2023-02-24T06:05:35.463Z,6.80
2023-02-24T06:08:05.911Z,6.50
2023-02-24T06:10:31.501Z,5.55
2023-02-24T06:12:55.271Z,5.15
2023-02-24T06:15:18.694Z,5.50
2023-02-24T06:17:41.946Z,6.25
2023-02-24T06:20:13.315Z,6.23
2023-02-24T06:22:42.408Z,5.23
2023-02-24T06:25:07.065Z,5.50
2023-02-24T06:27:30.318Z,5.53
2023-02-24T06:29:56.596Z,5.23
2023-02-24T06:32:22.090Z,6.28
2023-02-24T06:34:46.020Z,6.22
2023-02-24T06:37:19.605Z,5.70
2023-02-24T06:39:44.466Z,6.30
2023-02-24T06:42:08.645Z,5.95
2023-02-24T06:44:32.629Z,7.68
2023-02-24T06:46:56.239Z,5.77
2023-02-24T06:49:19.772Z,5.67
2023-02-24T06:51:43.608Z,5.78
2023-02-24T06:54:07.208Z,5.85
2023-02-24T06:56:38.296Z,4.55
2023-02-24T06:59:01.572Z,5.07
2023-02-24T07:01:28.857Z,4.95
2023-02-24T07:04:17.830Z,5.45
2023-02-24T07:06:44.920Z,6.43
2023-02-24T07:09:11.427Z,5.57
2023-02-24T07:11:41.528Z,5.25
2023-02-24T07:14:05.708Z,5.90
2023-02-24T07:16:29.799Z,5.45
2023-02-24T07:18:56.643Z,5.70
2023-02-24T07:21:23.508Z,6.20
2023-02-24T07:23:49.692Z,5.65
2023-02-24T07:26:15.760Z,4.97
2023-02-24T07:28:42.788Z,5.35
2023-02-24T07:31:08.482Z,5.30
2023-02-24T07:33:34.347Z,5.10
2023-02-24T07:35:57.583Z,5.35
2023-02-24T07:38:23.020Z,5.43
2023-02-24T07:40:47.403Z,5.18
2023-02-24T07:43:11.048Z,4.75
2023-02-24T07:45:36.096Z,4.80
2023-02-24T07:48:01.359Z,4.88
2023-02-24T07:50:25.018Z,5.57
2023-02-24T07:52:48.964Z,5.18
2023-02-24T07:55:13.068Z,5.80
2023-02-24T07:57:37.302Z,5.70
2023-02-24T08:00:01.063Z,5.67
2023-02-24T08:02:36.192Z,6.70
2023-02-24T08:05:02.819Z,5.40
2023-02-24T08:07:26.256Z,5.18
2023-02-24T08:10:03.436Z,6.23
2023-02-24T08:12:27.937Z,5.72
2023-02-24T08:15:00.152Z,5.93
2023-02-24T08:17:26.864Z,5.53
2023-02-24T08:20:14.355Z,5.13
2023-02-24T08:22:37.778Z,5.47
2023-02-24T08:25:05.872Z,5.10
2023-02-24T08:27:30.533Z,5.20
2023-02-24T08:29:59.807Z,5.65
2023-02-24T08:32:24.227Z,5.80
2023-02-24T08:34:50.935Z,4.83
2023-02-24T08:37:15.730Z,5.28
2023-02-24T08:39:39.317Z,5.25
2023-02-24T08:42:02.615Z,5.43
2023-02-24T08:44:27.209Z,4.80
2023-02-24T08:46:52.304Z,4.97
2023-02-24T08:49:17.073Z,4.07
2023-02-24T08:51:43.876Z,4.70
2023-02-24T08:54:11.169Z,4.78
2023-02-24T08:56:35.300Z,3.87
2023-02-24T08:59:05.541Z,4.33
2023-02-24T09:01:34.789Z,4.30
2023-02-24T09:04:00.389Z,3.70
2023-02-24T09:06:40.134Z,4.25
2023-02-24T09:09:22.712Z,4.85
2023-02-24T09:11:47.183Z,4.18
2023-02-24T09:14:26.080Z,3.90
2023-02-24T09:17:12.007Z,4.20
2023-02-24T09:20:01.978Z,4.10
2023-02-24T09:22:32.783Z,3.83
2023-02-24T09:25:17.877Z,3.87
2023-02-24T09:27:42.723Z,3.75
2023-02-24T09:30:08.173Z,3.45
2023-02-24T09:32:34.755Z,3.30
2023-02-24T09:34:58.157Z,3.78
2023-02-24T09:37:25.901Z,4.40
2023-02-24T09:40:15.489Z,4.03
2023-02-24T09:42:47.332Z,4.27
2023-02-24T09:45:19.239Z,3.80
2023-02-24T09:47:57.032Z,4.47
2023-02-24T09:51:03.405Z,4.15
2023-02-24T09:53:41.214Z,4.13
2023-02-24T09:56:16.182Z,3.72
2023-02-24T09:58:48.808Z,3.85
2023-02-24T10:01:34.368Z,3.60
2023-02-24T10:04:14.968Z,3.92
2023-02-24T10:06:46.578Z,3.60
2023-02-24T10:09:23.462Z,3.03
2023-02-24T10:11:54.571Z,3.47
2023-02-24T10:14:19.582Z,4.07
2023-02-24T10:16:46.361Z,3.30
2023-02-24T10:19:23.595Z,3.28
2023-02-24T10:22:02.692Z,3.73
2023-02-24T10:24:35.694Z,3.70
2023-02-24T10:27:08.437Z,3.70
2023-02-24T10:29:46.235Z,3.90
2023-02-24T10:32:23.992Z,3.70
2023-02-24T10:34:49.312Z,4.15
2023-02-24T10:37:27.629Z,4.63
2023-02-24T10:39:52.781Z,4.13
2023-02-24T10:42:25.263Z,4.07
2023-02-24T10:45:03.205Z,4.00
2023-02-24T10:47:31.835Z,4.40
2023-02-24T10:49:58.588Z,4.43
2023-02-24T10:52:37.613Z,4.10
2023-02-24T10:55:24.498Z,4.15
2023-02-24T10:57:59.035Z,3.47
2023-02-24T11:00:51.756Z,4.50
2023-02-24T11:03:32.905Z,4.03
2023-02-24T11:06:20.099Z,4.40
2023-02-24T11:08:54.605Z,4.80
2023-02-24T11:11:25.874Z,4.88
2023-02-24T11:14:10.825Z,4.00
2023-02-24T11:17:06.090Z,5.00
2023-02-24T11:19:31.119Z,4.47
2023-02-24T11:21:56.865Z,4.37
2023-02-24T11:24:20.754Z,4.53
2023-02-24T11:26:44.957Z,5.57
2023-02-24T11:29:47.702Z,4.78
2023-02-24T11:32:40.272Z,4.82
2023-02-24T11:35:16.111Z,4.57
2023-02-24T11:37:43.363Z,5.05
2023-02-24T11:40:16.255Z,4.60
2023-02-24T11:42:46.101Z,4.80
2023-02-24T11:45:23.183Z,5.22
2023-02-24T11:47:53.038Z,4.93
2023-02-24T11:50:32.015Z,4.88
2023-02-24T11:52:57.449Z,5.20
2023-02-24T11:55:34.990Z,4.50
2023-02-24T11:58:01.352Z,5.15
2023-02-24T12:00:28.912Z,4.97
2023-02-24T12:03:02.918Z,4.70
2023-02-24T12:05:34.978Z,5.10
2023-02-24T12:08:05.558Z,4.85
2023-02-24T12:10:32.956Z,4.57
2023-02-24T12:13:08.522Z,5.15
2023-02-24T12:15:35.533Z,5.32
2023-02-24T12:18:08.224Z,5.78
2023-02-24T12:20:38.353Z,5.32
2023-02-24T12:23:11.872Z,5.28
2023-02-24T12:25:53.457Z,5.72
2023-02-24T12:28:30.125Z,5.90
2023-02-24T12:31:15.083Z,6.23
2023-02-24T12:33:53.738Z,6.43
2023-02-24T12:36:44.534Z,6.43
2023-02-24T12:39:16.223Z,7.22
2023-02-24T12:42:06.714Z,6.82
2023-02-24T12:44:40.417Z,7.78
2023-02-24T12:47:11.858Z,7.10
2023-02-24T12:50:25.154Z,6.67
2023-02-24T12:53:01.745Z,7.33
2023-02-24T12:55:32.525Z,7.17
2023-02-24T12:58:06.227Z,6.67
2023-02-24T13:00:39.045Z,7.20
2023-02-24T13:03:23.644Z,6.93
2023-02-24T13:05:57.991Z,6.93
2023-02-24T13:08:40.231Z,6.45
2023-02-24T13:11:13.437Z,7.20
2023-02-24T13:13:48.770Z,6.47
2023-02-24T13:16:13.624Z,7.40
2023-02-24T13:18:39.552Z,7.80
2023-02-24T13:21:10.868Z,7.80
2023-02-24T13:23:34.861Z,7.20
2023-02-24T13:25:58.384Z,6.65
2023-02-24T13:28:27.157Z,7.50
2023-02-24T13:31:00.888Z,6.70
2023-02-24T13:33:30.790Z,7.27
2023-02-24T13:36:13.918Z,7.18
2023-02-24T13:38:39.865Z,8.18
2023-02-24T13:41:10.184Z,6.45
2023-02-24T13:43:33.676Z,7.22
2023-02-24T13:46:01.011Z,8.23
2023-02-24T13:48:55.954Z,7.07
2023-02-24T13:52:01.029Z,7.10
2023-02-24T13:55:03.564Z,7.33
2023-02-24T13:57:50.841Z,6.85
2023-02-24T14:00:27.669Z,7.53
2023-02-24T14:02:53.345Z,7.03
2023-02-24T14:05:24.189Z,8.13
2023-02-24T14:07:51.702Z,8.70
2023-02-24T14:10:20.077Z,9.07
2023-02-24T14:12:44.674Z,8.03
2023-02-24T14:15:16.549Z,8.88
2023-02-24T14:17:39.936Z,8.68
2023-02-24T14:20:15.755Z,8.15
2023-02-24T14:22:44.955Z,9.63
2023-02-24T14:25:13.680Z,9.25
2023-02-24T14:27:38.829Z,10.20
2023-02-24T14:30:02.182Z,10.68
2023-02-24T14:32:28.508Z,10.95
2023-02-24T14:34:53.597Z,11.52
2023-02-24T14:37:17.386Z,11.90
2023-02-24T14:39:40.690Z,12.52
2023-02-24T14:42:15.827Z,11.55
2023-02-24T14:44:44.107Z,12.57
2023-02-24T14:47:14.295Z,12.02
2023-02-24T14:49:37.964Z,13.30
2023-02-24T14:52:06.116Z,12.43
2023-02-24T14:54:44.857Z,13.00
2023-02-24T14:57:15.955Z,13.40
2023-02-24T14:59:41.169Z,13.05
2023-02-24T15:02:11.241Z,13.07
2023-02-24T15:04:37.759Z,12.60
2023-02-24T15:07:03.143Z,14.82
2023-02-24T15:09:35.885Z,14.95
2023-02-24T15:11:59.644Z,15.45
2023-02-24T15:14:29.165Z,16.73
2023-02-24T15:16:56.101Z,16.27
2023-02-24T15:19:28.271Z,15.18
2023-02-24T15:21:51.504Z,16.48
2023-02-24T15:24:20.805Z,16.63
2023-02-24T15:26:52.604Z,15.93
2023-02-24T15:29:22.053Z,17.50
2023-02-24T15:31:49.757Z,16.17
2023-02-24T15:34:19.830Z,16.50
2023-02-24T15:36:43.122Z,15.50
2023-02-24T15:39:10.664Z,16.42
2023-02-24T15:41:42.065Z,16.80
2023-02-24T15:44:06.486Z,17.52
2023-02-24T15:46:33.887Z,17.38
2023-02-24T15:49:02.986Z,16.35
2023-02-24T15:51:35.516Z,18.00
2023-02-24T15:54:01.281Z,18.08
2023-02-24T15:56:24.872Z,16.95
2023-02-24T15:58:48.311Z,17.70
2023-02-24T16:01:13.661Z,17.63
2023-02-24T16:03:37.126Z,16.60
2023-02-24T16:06:01.970Z,16.52
2023-02-24T16:08:25.386Z,16.05
2023-02-24T16:10:50.352Z,16.20
2023-02-24T16:13:20.594Z,19.42
2023-02-24T16:15:46.416Z,18.70
2023-02-24T16:18:20.951Z,16.88
2023-02-24T16:20:48.797Z,18.55
2023-02-24T16:23:14.782Z,18.40
2023-02-24T16:25:42.902Z,19.73
2023-02-24T16:28:06.485Z,18.67
2023-02-24T16:30:31.216Z,18.35
2023-02-24T16:32:54.794Z,18.02
2023-02-24T16:35:18.332Z,17.95
2023-02-24T16:37:42.162Z,16.98
2023-02-24T16:40:24.290Z,14.40
2023-02-24T16:42:48.060Z,12.45
2023-02-24T16:45:12.676Z,10.90
2023-02-24T16:47:35.983Z,10.02
2023-02-24T16:49:59.398Z,10.50
2023-02-24T16:52:24.741Z,10.18
2023-02-24T16:54:48.657Z,9.75
2023-02-24T16:57:13.315Z,9.05
2023-02-24T16:59:36.609Z,8.77
2023-02-24T17:02:02.165Z,7.93
2023-02-24T17:04:25.939Z,8.65
2023-02-24T17:06:49.593Z,6.80
2023-02-24T17:09:15.574Z,6.47
2023-02-24T17:11:38.936Z,5.97
2023-02-24T17:14:03.392Z,5.60
2023-02-24T17:16:26.743Z,6.30
2023-02-24T17:18:50.159Z,4.80
2023-02-24T17:21:15.916Z,4.85
2023-02-24T17:23:39.230Z,4.65
2023-02-24T17:26:03.601Z,4.68
2023-02-24T17:28:26.939Z,4.75
2023-02-24T17:30:52.069Z,4.43
2023-02-24T17:33:15.710Z,4.28
2023-02-24T17:35:38.926Z,4.57
2023-02-24T17:38:02.701Z,4.85
2023-02-24T17:40:26.237Z,5.20
2023-02-24T17:42:49.578Z,5.60
2023-02-24T17:45:14.722Z,4.53
2023-02-24T17:47:39.943Z,6.32
2023-02-24T17:50:04.685Z,7.50
2023-02-24T17:52:29.370Z,5.75
2023-02-24T17:54:53.050Z,7.25
2023-02-24T17:57:16.461Z,4.20
2023-02-24T17:59:39.641Z,7.22
2023-02-24T18:02:03.132Z,18.05
2023-02-24T18:04:27.985Z,7.40
2023-02-24T18:06:51.360Z,5.22
2023-02-24T18:09:14.748Z,6.85
2023-02-24T18:11:38.114Z,3.65
2023-02-24T18:14:01.810Z,3.00
2023-02-24T18:16:25.820Z,2.10
2023-02-24T18:18:49.946Z,3.17
2023-02-24T18:21:14.734Z,3.13
2023-02-24T18:23:40.294Z,2.85
2023-02-24T18:26:05.260Z,2.22
2023-02-24T18:28:28.830Z,2.42
2023-02-24T18:30:52.202Z,2.08
2023-02-24T18:33:15.634Z,2.40
2023-02-24T18:35:40.005Z,2.40
2023-02-24T18:38:04.660Z,2.30
2023-02-24T18:40:28.673Z,1.80
2023-02-24T18:42:52.113Z,2.22
2023-02-24T18:45:15.727Z,2.53
2023-02-24T18:47:39.017Z,2.53
2023-02-24T18:50:02.341Z,2.40
2023-02-24T18:52:25.641Z,2.80
2023-02-24T18:54:50.565Z,2.30
2023-02-24T18:57:13.884Z,2.45
2023-02-24T18:59:37.058Z,1.92
2023-02-24T19:02:00.422Z,2.08
2023-02-24T19:04:24.815Z,2.28
2023-02-24T19:06:49.210Z,2.53
2023-02-24T19:09:13.288Z,2.30
2023-02-24T19:11:39.250Z,2.05
2023-02-24T19:14:02.855Z,2.33
2023-02-24T19:16:26.639Z,2.67
2023-02-24T19:18:52.386Z,2.30
2023-02-24T19:21:15.673Z,3.08
2023-02-24T19:23:40.166Z,2.63
2023-02-24T19:26:03.594Z,2.60
2023-02-24T19:28:28.206Z,2.72
2023-02-24T19:30:51.523Z,3.50
2023-02-24T19:33:14.837Z,3.13
2023-02-24T19:35:42.041Z,3.10
2023-02-24T19:38:05.299Z,3.30
2023-02-24T19:40:28.652Z,3.13
2023-02-24T19:42:53.147Z,3.78
2023-02-24T19:45:18.079Z,3.72
2023-02-24T19:47:42.785Z,3.10
2023-02-24T19:50:06.843Z,3.38
2023-02-24T19:52:30.107Z,2.85
2023-02-24T19:54:54.302Z,3.95
2023-02-24T19:57:18.009Z,3.42
2023-02-24T19:59:54.304Z,4.50
2023-02-24T20:02:19.049Z,4.20
2023-02-24T20:04:42.467Z,3.60
2023-02-24T20:07:06.435Z,3.95
2023-02-24T20:09:29.802Z,3.90
2023-02-24T20:11:54.283Z,3.40
2023-02-24T20:14:20.157Z,2.75
2023-02-24T20:16:44.727Z,3.30
2023-02-24T20:19:11.430Z,2.72
2023-02-24T20:21:35.345Z,2.88
2023-02-24T20:24:01.052Z,2.90
2023-02-24T20:26:24.546Z,3.20
2023-02-24T20:28:48.975Z,3.85
2023-02-24T20:31:15.306Z,3.88
2023-02-24T20:33:40.776Z,3.33
2023-02-24T20:36:10.481Z,3.28
2023-02-24T20:38:33.826Z,6.80
2023-02-24T20:41:01.089Z,5.80
2023-02-24T20:43:24.414Z,3.35
2023-02-24T20:45:47.634Z,3.60
2023-02-24T20:48:10.951Z,4.15
2023-02-24T20:50:35.559Z,3.30
2023-02-24T20:53:00.251Z,3.15
2023-02-24T20:55:23.862Z,3.30
2023-02-24T20:57:47.151Z,3.80
2023-02-24T21:00:12.173Z,3.45
2023-02-24T21:02:36.523Z,3.88
2023-02-24T21:04:59.948Z,4.20
2023-02-24T21:07:23.294Z,3.90
2023-02-24T21:09:48.033Z,4.05
2023-02-24T21:12:11.777Z,3.92
2023-02-24T21:14:35.114Z,3.83
2023-02-24T21:16:58.358Z,4.43
2023-02-24T21:19:21.863Z,4.78
2023-02-24T21:21:45.115Z,5.50
2023-02-24T21:24:09.554Z,4.55
2023-02-24T21:26:34.235Z,4.95
2023-02-24T21:28:59.363Z,4.60
2023-02-24T21:31:22.935Z,6.40
2023-02-24T21:33:51.252Z,9.65
2023-02-24T21:36:16.649Z,5.53
2023-02-24T21:38:41.308Z,3.92
2023-02-24T21:41:07.834Z,4.43
2023-02-24T21:43:32.724Z,4.43
2023-02-24T21:45:56.006Z,4.25
2023-02-24T21:48:19.347Z,4.60
2023-02-24T21:50:42.675Z,4.60
2023-02-24T21:53:06.143Z,4.77
2023-02-24T21:55:29.344Z,5.13
2023-02-24T21:57:53.019Z,5.20
2023-02-24T22:00:19.778Z,4.70
2023-02-24T22:02:43.208Z,4.60
2023-02-24T22:05:07.224Z,4.63
2023-02-24T22:07:30.927Z,4.43
2023-02-24T22:09:54.189Z,4.60
2023-02-24T22:12:17.493Z,3.90
2023-02-24T22:14:41.537Z,5.22
2023-02-24T22:17:06.183Z,4.50
2023-02-24T22:19:29.417Z,5.55
2023-02-24T22:21:52.804Z,4.32
2023-02-24T22:24:18.259Z,4.47
2023-02-24T22:26:41.761Z,3.63
2023-02-24T22:29:05.217Z,5.13
2023-02-24T22:31:31.857Z,5.30
2023-02-24T22:33:56.680Z,3.92
2023-02-24T22:36:22.712Z,4.70
2023-02-24T22:38:46.832Z,5.30
2023-02-24T22:41:14.611Z,4.70
2023-02-24T22:43:37.945Z,5.50
2023-02-24T22:46:05.078Z,5.07
2023-02-24T22:48:29.341Z,6.32
2023-02-24T22:50:57.202Z,5.65
2023-02-24T22:53:20.439Z,4.53
2023-02-24T22:55:47.534Z,5.53
2023-02-24T22:58:10.806Z,5.10
2023-02-24T23:00:34.129Z,4.70
2023-02-24T23:02:57.400Z,5.15
2023-02-24T23:05:20.666Z,5.18
2023-02-24T23:07:48.457Z,4.75
2023-02-24T23:10:13.055Z,4.78
2023-02-24T23:12:37.555Z,4.37
2023-02-24T23:15:00.822Z,5.25
2023-02-24T23:17:24.160Z,5.63
2023-02-24T23:19:47.502Z,4.72
2023-02-24T23:22:10.805Z,5.18
2023-02-24T23:24:36.094Z,4.43
2023-02-24T23:26:59.356Z,5.30
2023-02-24T23:29:24.614Z,4.85
2023-02-24T23:31:48.987Z,4.95
2023-02-24T23:34:13.397Z,5.82
2023-02-24T23:36:38.407Z,5.75
2023-02-24T23:39:01.816Z,5.25
2023-02-24T23:41:26.580Z,5.25
2023-02-24T23:43:49.888Z,4.63
2023-02-24T23:46:14.322Z,4.65
2023-02-24T23:48:38.194Z,4.27
2023-02-24T23:51:03.899Z,4.65
2023-02-24T23:53:27.388Z,5.25
2023-02-24T23:55:51.062Z,5.40
2023-02-24T23:58:16.629Z,4.55
